• Join FlightAware (Why Join?)
  • Login
  • US Flag 
04:44PM EST


 

Airport Tracker/Info


-or-


 

Live Flight TrackerFlight Track Log ✈ ASQ5685 ✈ 23-Apr-2014 ✈ KATL - KIAD

Flight Track Log - Related Links

Times and Time Zones

All times are in EDT time to prevent confusion due to time zone crossing. See the ASQ5685 flight status page for this flight to view local times or setup timezone preferences in your user account.

Time Position Orientation Groundspeed Altitude Reporting Facility
EDT Latitude Longitude Course Direction KTS MPH feet Rate Location/Type
09:58AM 33.6333 -84.4667 48° Northeast 154 177 2,200  Level Atlanta TRACON
09:59AM 33.6000 -84.5333 239° Southwest 236 272 3,800 2,160 Climbing Atlanta TRACON
10:00AM 33.5500 -84.5833 220° Southwest 280 322 6,600 2,280 Climbing Atlanta TRACON
10:01AM 33.7733 -83.9392 54° Northeast  Level FlightAware Approximate
10:01AM 33.4675 -84.5642 169° South 303 349 9,000  Level Atlanta Center
10:02AM 33.8356 -83.8352 54° Northeast  Level FlightAware Approximate
10:02AM 33.4575 -84.4644 97° East 276 318 10,600  Level Atlanta Center
10:03AM 33.9026 -83.7355 48° Northeast  Level FlightAware Approximate
10:03AM 33.4558 -84.3400 91° East 291 335 11,800  Level Atlanta Center
10:04AM 33.5019 -84.2406 61° Northeast 299 344 13,200 1,380 Climbing Atlanta Center
10:05AM 33.5917 -84.1858 27° Northeast 308 354 14,600 1,260 Climbing Atlanta Center
10:06AM 33.6814 -84.1286 28° Northeast 332 382 15,800 1,080 Climbing Atlanta Center
10:07AM 33.7589 -84.0489 41° Northeast 354 407 16,800 1,080 Climbing Atlanta Center
10:08AM 33.8172 -83.9364 58° Northeast 373 429 18,000 1,020 Climbing Atlanta Center
10:09AM 33.8733 -83.8236 59° Northeast 378 435 18,900 840 Climbing Atlanta Center
10:10AM 33.9317 -83.7108 58° Northeast 391 450 19,700 720 Climbing Atlanta Center
10:11AM 33.9981 -83.6053 53° Northeast 397 457 20,400 720 Climbing Atlanta Center
10:12AM 34.0664 -83.4972 53° Northeast 397 457 21,200 780 Climbing Atlanta Center
10:13AM 34.1347 -83.3889 53° Northeast 403 464 22,000 660 Climbing Atlanta Center
10:14AM 34.2031 -83.2778 53° Northeast 410 472 22,600 720 Climbing Atlanta Center
10:15AM 34.2733 -83.1639 53° Northeast 410 472 23,500 840 Climbing Atlanta Center
10:16AM 34.3456 -83.0500 52° Northeast 416 479 24,300 600 Climbing Atlanta Center
10:17AM 34.4072 -82.9486 54° Northeast 422 486 24,800 480 Climbing Atlanta Center
10:18AM 34.4792 -82.8267 54° Northeast 427 491 25,300 480 Climbing Atlanta Center
10:19AM 34.5531 -82.7097 52° Northeast 432 497 25,800 480 Climbing Atlanta Center
10:20AM 34.6289 -82.5897 52° Northeast 443 510 26,300 480 Climbing Atlanta Center
10:21AM 34.7025 -82.4722 53° Northeast 443 510 26,800 480 Climbing Atlanta Center
10:22AM 34.7739 -82.3469 55° Northeast 443 510 27,300 480 Climbing Atlanta Center
10:23AM 34.8450 -82.2192 56° Northeast 443 510 27,800 480 Climbing Atlanta Center
10:24AM 34.9222 -82.0831 55° Northeast 449 517 28,300 480 Climbing Atlanta Center
10:25AM 34.9892 -81.9572 57° Northeast 449 517 28,800 300 Climbing Atlanta Center
10:26AM 35.0600 -81.8311 56° Northeast 449 517 29,000 60 Climbing Atlanta Center
10:27AM 35.1308 -81.7075 55° Northeast 449 517 29,000  Level Atlanta Center
10:28AM 35.1892 -81.5964 57° Northeast 444 511 29,000  Level Atlanta Center
10:29AM 35.2533 -81.4725 58° Northeast 439 505 29,000  Level Atlanta Center
10:30AM 35.3156 -81.3536 57° Northeast 428 493 29,000  Level Atlanta Center
10:31AM 35.3794 -81.2342 57° Northeast 417 480 29,000 -540 Level Atlanta Center
10:32AM 35.4436 -81.1172 56° Northeast 417 480 28,000 -1,020 Descending Atlanta Center
10:33AM 35.5075 -80.9953 57° Northeast 417 480 27,000 -540 Descending Atlanta Center
10:34AM 35.5711 -80.8806 56° Northeast 417 480 27,000  Level Atlanta Center
10:35AM 35.6328 -80.7656 57° Northeast 417 480 27,000  Level Atlanta Center
10:37AM 35.7581 -80.5244 57° Northeast 387 445 27,000  Level Washington Center
10:38AM 35.8189 -80.4128 56° Northeast 387 445 27,000  Level Washington Center
10:39AM 35.8800 -80.2961 57° Northeast 392 451 27,000  Level Washington Center
10:40AM 35.9386 -80.1792 58° Northeast 397 457 27,000  Level Washington Center
10:41AM 35.9994 -80.0644 57° Northeast 397 457 27,000  Level Washington Center
10:42AM 36.0600 -79.9472 57° Northeast 397 457 27,000  Level Washington Center
10:43AM 36.1247 -79.8350 54° Northeast 397 457 27,000  Level Washington Center
10:44AM 36.1911 -79.7253 53° Northeast 397 457 27,000  Level Washington Center
10:45AM 36.2467 -79.6253 55° Northeast 397 457 27,000  Level Washington Center
10:46AM 36.3156 -79.4972 56° Northeast 397 457 27,000  Level Washington Center
10:47AM 36.3842 -79.3769 55° Northeast 416 479 27,000  Level Washington Center
10:48AM 36.4528 -79.2536 55° Northeast 416 479 27,000  Level Washington Center
10:49AM 36.5233 -79.1278 55° Northeast 426 490 27,000 -300 Level Washington Center
10:50AM 36.5936 -78.9992 56° Northeast 441 507 26,500 -780 Descending Washington Center
10:51AM 36.6661 -78.8753 54° Northeast 441 507 25,500 -780 Descending Washington Center
10:52AM 36.7253 -78.7664 56° Northeast 434 499 25,000 -300 Descending Washington Center
10:53AM 36.7933 -78.6369 57° Northeast 415 478 25,000  Level Washington Center
10:54AM 36.8611 -78.5150 55° Northeast 410 472 25,000 -540 Level Washington Center
10:55AM 36.9264 -78.3953 56° Northeast 415 478 24,000 -960 Descending Washington Center
10:56AM 36.9917 -78.2781 55° Northeast 410 472 23,100 -540 Descending Washington Center
10:57AM 37.0606 -78.1919 45° Northeast 403 464 23,000 -60 Descending Washington Center
10:58AM 37.1558 -78.1169 32° Northeast 376 433 23,000 -120 Level Washington Center
10:59AM 37.2469 -78.0494 31° Northeast 376 433 22,800 -540 Descending Washington Center
11:00AM 37.3339 -77.9792 33° Northeast 371 427 22,000 -420 Descending Washington Center
11:01AM 37.4208 -77.9139 31° Northeast 371 427 22,000  Level Washington Center
11:02AM 37.5056 -77.8486 31° Northeast 366 421 22,000  Level Washington Center
11:03AM 37.5919 -77.7933 27° Northeast 361 415 22,000 -840 Level Washington Center
11:04AM 37.6786 -77.7408 26° Northeast 355 409 20,400 -1,740 Descending Washington Center
11:05AM 37.7669 -77.6933 23° Northeast 344 396 18,600 -1,860 Descending Washington Center
11:06AM 37.8514 -77.6406 26° Northeast 344 396 16,700 -1,920 Descending Washington Center
11:07AM 37.9356 -77.5900 25° Northeast 339 390 14,900 3,120 Descending Washington Center
11:08AM 38.0156 -77.5422 25° Northeast 334 384 23,000 -1,800 Climbing Washington Center
11:09AM 38.0872 -77.5017 24° Northeast 323 372 11,300 -6,480 Descending Washington Center
11:10AM 38.1650 -77.4589 23° Northeast 307 353 10,000 -720 Descending Washington Center
11:11AM 38.2303 -77.4183 26° Northeast 280 322 10,000 -540 Level Washington Center
11:12AM 38.2992 -77.4172 North 246 283 9,000 -1,140 Descending Washington Center
11:13AM 38.3656 -77.4400 345° North 240 276 7,800 -1,200 Descending Washington Center
11:14AM 38.4361 -77.4472 355° North 240 276 6,600 -1,200 Descending Washington Center
11:15AM 38.5031 -77.4461 North 240 276 5,400 -1,200 Descending Washington Center
11:16AM 38.5697 -77.4450 North 235 270 4,200 -720 Descending Washington Center
11:17AM 38.6364 -77.4442 North 235 270 4,000 -180 Descending Washington Center
11:18AM 38.6833 -77.4333 10° North 241 277 4,000  Level Potomac TRACON
11:19AM 38.7500 -77.4333 360° North 166 191 4,000 -420 Level Potomac TRACON
11:20AM 38.7833 -77.4333 360° North 163 188 3,200 -900 Descending Potomac TRACON
11:21AM 38.8333 -77.4333 360° North 167 192 2,200 -900 Descending Potomac TRACON
11:22AM 38.8667 -77.4333 360° North 141 162 1,400 -780 Descending Potomac TRACON
11:23AM 38.9000 -77.4333 360° North 128 147 700 -720 Descending Potomac TRACON